Time;durP1;ratioP1;P1;durP2;ratioP2;P2;SDS_P1;SDS_P2;PMS_P1;PMS_P2;Temp;Humidity;BMP_temperature;BMP_pressure;BME280_temperature;BME280_humidity;BME280_pressure;Samples;Min_cycle;Max_cycle;Signal;HPM_P1;HPM_P2
2023/07/31 00:00:28;;;;;;;14.90;6.68;;;16.70;99.90;;;;;;5114543;28;20260;-48
2023/07/31 00:02:54;;;;;;;14.93;6.22;;;16.80;99.90;;;;;;5112993;28;20252;-49
2023/07/31 00:05:20;;;;;;;17.00;6.40;;;16.70;99.90;;;;;;5113728;28;20176;-50
2023/07/31 00:07:46;;;;;;;16.45;6.82;;;16.70;99.90;;;;;;5114686;28;20169;-48
2023/07/31 00:10:11;;;;;;;12.80;6.47;;;16.70;99.90;;;;;;5114261;28;20177;-47
2023/07/31 00:12:39;;;;;;;16.20;7.07;;;16.70;99.90;;;;;;5114355;28;20180;-48
2023/07/31 00:15:06;;;;;;;12.48;6.43;;;16.70;99.90;;;;;;5114266;28;20228;-48
2023/07/31 00:17:32;;;;;;;18.58;6.38;;;16.70;99.90;;;;;;5114211;28;20260;-50
2023/07/31 00:19:57;;;;;;;14.60;6.60;;;16.70;99.90;;;;;;5114206;28;20645;-50
2023/07/31 00:22:23;;;;;;;14.45;5.95;;;16.70;99.90;;;;;;5114178;28;20499;-48
2023/07/31 00:24:49;;;;;;;14.75;6.80;;;16.70;99.90;;;;;;5114435;28;20655;-50
2023/07/31 00:27:15;;;;;;;16.50;6.85;;;16.70;99.90;;;;;;5114107;28;20168;-51
2023/07/31 00:29:41;;;;;;;13.32;6.53;;;16.60;99.90;;;;;;5113819;28;20170;-50
2023/07/31 00:32:07;;;;;;;14.90;6.70;;;16.70;99.90;;;;;;5113928;28;20201;-51
2023/07/31 00:34:32;;;;;;;15.52;7.40;;;16.80;99.90;;;;;;5114026;28;20306;-50
2023/07/31 00:36:58;;;;;;;14.15;7.15;;;16.80;99.90;;;;;;5113986;28;20196;-50
2023/07/31 00:39:24;;;;;;;15.77;6.82;;;16.80;99.90;;;;;;5113981;28;20184;-47
2023/07/31 00:41:49;;;;;;;17.17;7.18;;;16.70;99.90;;;;;;5113688;28;20204;-49
2023/07/31 00:44:15;;;;;;;14.90;7.05;;;16.80;99.90;;;;;;5113962;28;20173;-50
2023/07/31 00:46:41;;;;;;;15.05;6.47;;;16.80;99.90;;;;;;5113924;28;20255;-51
2023/07/31 00:49:07;;;;;;;16.60;7.05;;;16.70;99.90;;;;;;5113693;28;20257;-49
2023/07/31 00:51:33;;;;;;;15.40;6.75;;;16.70;99.90;;;;;;5113530;28;20200;-48
2023/07/31 00:53:59;;;;;;;12.45;6.78;;;16.70;99.90;;;;;;5113873;28;20630;-50
2023/07/31 00:56:25;;;;;;;15.13;7.07;;;16.70;99.90;;;;;;5113839;28;20684;-49
2023/07/31 00:58:51;;;;;;;15.15;7.22;;;16.80;99.90;;;;;;5113804;28;20522;-48
2023/07/31 01:01:17;;;;;;;13.88;7.10;;;16.70;99.90;;;;;;5113509;28;20180;-48
2023/07/31 01:03:44;;;;;;;16.42;6.70;;;16.80;99.90;;;;;;5113727;28;20173;-50
2023/07/31 01:06:22;;;;;;;15.18;6.80;;;16.80;99.90;;;;;;5113726;28;20181;-50
2023/07/31 01:09:25;;;;;;;13.30;6.63;;;16.80;99.90;;;;;;5113761;28;20206;-52
2023/07/31 01:11:57;;;;;;;14.95;6.28;;;16.80;99.90;;;;;;5100802;28;20263;-51
2023/07/31 01:14:23;;;;;;;15.10;6.15;;;16.80;99.90;;;;;;5113625;28;20177;-49
2023/07/31 01:16:48;;;;;;;13.15;6.00;;;16.60;99.90;;;;;;5115333;28;20531;-49
2023/07/31 01:19:22;;;;;;;13.25;6.55;;;16.70;99.90;;;;;;5117308;28;20287;-49
2023/07/31 01:22:30;;;;;;;13.57;6.32;;;16.70;99.90;;;;;;5117641;28;20687;-49
2023/07/31 01:25:14;;;;;;;15.23;7.03;;;16.80;99.90;;;;;;5117535;28;20173;-50
2023/07/31 01:27:50;;;;;;;16.33;6.60;;;16.70;99.90;;;;;;5117286;28;20595;-50
2023/07/31 01:30:22;;;;;;;16.23;7.00;;;16.80;99.90;;;;;;5117379;28;20165;-50
2023/07/31 01:32:49;;;;;;;13.48;6.78;;;16.80;99.90;;;;;;5116124;28;20165;-47
2023/07/31 01:35:15;;;;;;;16.58;6.47;;;16.80;99.90;;;;;;5117348;28;20169;-51
2023/07/31 01:37:40;;;;;;;13.98;6.97;;;16.80;99.90;;;;;;5117289;27;20380;-47
2023/07/31 01:40:07;;;;;;;14.73;6.32;;;16.80;99.90;;;;;;5117267;28;20180;-47
2023/07/31 01:42:32;;;;;;;15.45;6.43;;;16.80;99.90;;;;;;5117178;28;20173;-51
2023/07/31 01:44:58;;;;;;;13.55;6.70;;;16.80;99.90;;;;;;5117425;28;20176;-47
2023/07/31 01:47:24;;;;;;;17.88;6.47;;;16.70;99.90;;;;;;5117154;28;20173;-49
2023/07/31 01:49:49;;;;;;;14.90;6.35;;;16.80;99.90;;;;;;5116815;28;20578;-46
2023/07/31 01:52:15;;;;;;;13.93;6.55;;;16.80;99.90;;;;;;5116943;28;20269;-52
2023/07/31 01:54:40;;;;;;;11.63;5.97;;;16.80;99.90;;;;;;5116945;28;20247;-52
2023/07/31 01:57:06;;;;;;;10.15;6.07;;;16.80;99.90;;;;;;5115592;28;20173;-49
2023/07/31 01:59:32;;;;;;;13.18;6.35;;;16.90;99.90;;;;;;5116900;27;20621;-48
2023/07/31 02:01:58;;;;;;;12.30;6.43;;;16.70;99.90;;;;;;5116880;28;20188;-51
2023/07/31 02:04:23;;;;;;;14.82;6.15;;;16.80;99.90;;;;;;5116744;28;20248;-49
2023/07/31 02:06:49;;;;;;;12.85;6.20;;;16.80;99.90;;;;;;5116737;28;20201;-48
2023/07/31 02:09:14;;;;;;;11.98;5.50;;;16.80;99.90;;;;;;5116707;28;20178;-52
2023/07/31 02:11:40;;;;;;;11.43;5.60;;;16.80;99.90;;;;;;5116597;28;20201;-48
2023/07/31 02:14:06;;;;;;;12.52;6.32;;;16.80;99.90;;;;;;5116578;28;20173;-50
2023/07/31 02:16:31;;;;;;;11.80;5.93;;;16.80;99.90;;;;;;5116506;28;20511;-51
2023/07/31 02:18:57;;;;;;;10.90;5.57;;;16.90;99.90;;;;;;5116203;28;20225;-52
2023/07/31 02:21:23;;;;;;;16.52;6.28;;;16.90;99.90;;;;;;5116550;28;20257;-52
2023/07/31 02:23:48;;;;;;;11.32;5.68;;;16.90;99.90;;;;;;5116427;28;20522;-49
2023/07/31 02:26:14;;;;;;;15.40;6.15;;;16.90;99.90;;;;;;5116617;28;20256;-48
2023/07/31 02:28:42;;;;;;;15.13;6.05;;;16.80;99.90;;;;;;5115492;28;20177;-52
2023/07/31 02:31:08;;;;;;;11.30;5.72;;;16.80;99.90;;;;;;5116117;27;20212;-48
2023/07/31 02:33:34;;;;;;;14.13;5.95;;;16.90;99.90;;;;;;5116192;28;20182;-53
2023/07/31 02:35:59;;;;;;;12.60;5.93;;;16.90;99.90;;;;;;5116099;28;20222;-47
2023/07/31 02:38:25;;;;;;;16.10;5.85;;;16.70;99.90;;;;;;5116234;28;20187;-50
2023/07/31 02:40:51;;;;;;;14.20;5.57;;;16.80;99.90;;;;;;5116065;27;20612;-49
2023/07/31 02:43:16;;;;;;;13.93;5.47;;;16.90;99.90;;;;;;5116030;28;20538;-49
2023/07/31 02:45:42;;;;;;;11.35;5.20;;;16.90;99.90;;;;;;5115670;28;20520;-47
2023/07/31 02:48:07;;;;;;;13.02;5.97;;;16.90;99.90;;;;;;5115935;28;20177;-47
2023/07/31 02:50:33;;;;;;;12.95;5.47;;;16.90;99.90;;;;;;5115488;28;20256;-49
2023/07/31 02:52:59;;;;;;;15.93;5.50;;;17.00;99.90;;;;;;5115856;28;20625;-49
2023/07/31 02:55:24;;;;;;;14.88;5.70;;;16.90;99.90;;;;;;5115765;28;20542;-51
2023/07/31 02:57:52;;;;;;;12.32;5.63;;;16.90;99.90;;;;;;5115833;28;20421;-49
2023/07/31 03:00:17;;;;;;;14.70;5.68;;;17.00;99.90;;;;;;5115647;28;20683;-52
2023/07/31 03:02:43;;;;;;;16.63;5.95;;;17.00;99.90;;;;;;5115602;28;20256;-51
2023/07/31 03:05:09;;;;;;;14.43;5.88;;;17.10;99.90;;;;;;5115504;28;20318;-50
2023/07/31 03:07:34;;;;;;;14.73;5.57;;;16.90;99.90;;;;;;5115865;28;20180;-50
2023/07/31 03:10:00;;;;;;;14.45;5.50;;;17.00;99.90;;;;;;5115149;28;20672;-52
2023/07/31 03:12:27;;;;;;;12.95;6.05;;;17.00;99.90;;;;;;5115393;28;20276;-51
2023/07/31 03:14:53;;;;;;;13.95;6.22;;;17.00;99.90;;;;;;5115154;28;20565;-49
2023/07/31 03:17:18;;;;;;;10.27;5.00;;;17.10;99.90;;;;;;5115314;28;20169;-50
2023/07/31 03:19:44;;;;;;;15.25;6.28;;;17.10;99.90;;;;;;5115296;28;20221;-47
2023/07/31 03:22:09;;;;;;;10.63;5.95;;;17.10;99.90;;;;;;5115240;28;20177;-49
2023/07/31 03:24:35;;;;;;;13.10;6.60;;;17.10;99.90;;;;;;5115165;28;20256;-49
2023/07/31 03:27:01;;;;;;;14.20;6.25;;;17.20;99.90;;;;;;5115246;28;20575;-47
2023/07/31 03:29:27;;;;;;;14.50;6.15;;;17.10;99.90;;;;;;5115136;28;20180;-48
2023/07/31 03:31:52;;;;;;;14.95;5.70;;;17.20;99.90;;;;;;5115025;28;20240;-48
2023/07/31 03:34:18;;;;;;;12.65;6.05;;;17.20;99.90;;;;;;5114985;28;20180;-52
2023/07/31 03:36:44;;;;;;;15.02;6.10;;;17.20;99.90;;;;;;5114952;28;20165;-46
2023/07/31 03:39:10;;;;;;;12.00;5.97;;;17.20;99.90;;;;;;5114597;28;20272;-49
2023/07/31 03:41:35;;;;;;;13.55;6.32;;;17.20;99.90;;;;;;5114325;28;20174;-49
2023/07/31 03:44:01;;;;;;;11.63;6.07;;;17.20;99.90;;;;;;5114554;28;20186;-50
2023/07/31 03:46:27;;;;;;;10.02;5.65;;;17.20;99.90;;;;;;5115053;28;20173;-50
2023/07/31 03:48:52;;;;;;;12.13;6.07;;;17.00;99.90;;;;;;5114775;28;20180;-48
2023/07/31 03:51:18;;;;;;;12.10;5.95;;;17.00;99.90;;;;;;5114521;28;20198;-53
2023/07/31 03:53:44;;;;;;;11.43;6.25;;;17.00;99.90;;;;;;5114628;28;20177;-51
2023/07/31 03:56:10;;;;;;;13.43;6.70;;;17.00;99.90;;;;;;5114567;28;20572;-49
2023/07/31 03:58:36;;;;;;;12.70;6.25;;;17.00;99.90;;;;;;5114608;28;20248;-49
2023/07/31 04:01:02;;;;;;;13.02;6.78;;;17.10;99.90;;;;;;5114498;28;20187;-49
2023/07/31 04:03:28;;;;;;;11.90;5.82;;;17.10;99.90;;;;;;5114750;28;20614;-50
2023/07/31 04:05:57;;;;;;;13.40;5.97;;;17.00;99.90;;;;;;5113164;28;20188;-47
2023/07/31 04:08:24;;;;;;;10.13;6.18;;;17.00;99.90;;;;;;5114417;28;20165;-49
2023/07/31 04:10:49;;;;;;;11.23;5.78;;;17.00;99.90;;;;;;5114326;28;20193;-50
2023/07/31 04:13:15;;;;;;;12.00;6.15;;;17.00;99.90;;;;;;5114367;28;20184;-51
2023/07/31 04:15:41;;;;;;;13.80;6.43;;;17.00;99.90;;;;;;5114065;28;20176;-48
2023/07/31 04:18:07;;;;;;;8.73;5.93;;;16.90;99.90;;;;;;5114291;28;20199;-51
2023/07/31 04:20:32;;;;;;;12.20;6.22;;;16.90;99.90;;;;;;5114677;28;20224;-52
2023/07/31 04:22:58;;;;;;;12.90;6.05;;;16.90;99.90;;;;;;5113929;28;20663;-50
2023/07/31 04:25:24;;;;;;;11.75;5.90;;;17.00;99.90;;;;;;5105675;28;20224;-51
2023/07/31 04:27:49;;;;;;;8.20;5.63;;;16.90;99.90;;;;;;5113748;28;20681;-51
2023/07/31 04:30:15;;;;;;;10.77;6.30;;;16.80;99.90;;;;;;5114115;28;20197;-51
2023/07/31 04:32:41;;;;;;;13.82;6.22;;;16.80;99.90;;;;;;5114009;28;20208;-51
2023/07/31 04:35:07;;;;;;;12.98;5.70;;;16.80;99.90;;;;;;5114023;28;20181;-52
2023/07/31 04:37:32;;;;;;;8.60;6.07;;;16.90;99.90;;;;;;5114064;28;20271;-47
2023/07/31 04:39:58;;;;;;;14.35;6.05;;;16.90;99.90;;;;;;5113504;28;20173;-50
2023/07/31 04:42:24;;;;;;;11.13;6.57;;;16.90;99.90;;;;;;5113762;28;20192;-49
2023/07/31 04:44:49;;;;;;;9.15;6.05;;;16.90;99.90;;;;;;5113840;28;20176;-50
2023/07/31 04:47:15;;;;;;;9.70;5.85;;;16.90;99.90;;;;;;5114138;28;20169;-50
2023/07/31 04:49:41;;;;;;;9.63;5.70;;;16.90;99.90;;;;;;5114040;28;20209;-47
2023/07/31 04:52:06;;;;;;;12.00;5.55;;;17.00;99.90;;;;;;5116087;28;20200;-49
2023/07/31 04:54:32;;;;;;;9.88;5.85;;;17.00;99.90;;;;;;5118136;28;20499;-47
2023/07/31 04:56:58;;;;;;;8.43;5.40;;;17.00;99.90;;;;;;5117998;28;20662;-50
2023/07/31 04:59:23;;;;;;;7.38;5.47;;;16.90;99.90;;;;;;5117109;28;20165;-48
2023/07/31 05:01:49;;;;;;;11.40;5.95;;;16.90;99.90;;;;;;5117670;28;20182;-48
2023/07/31 05:04:15;;;;;;;9.77;5.68;;;16.90;99.90;;;;;;5117735;28;20579;-49
2023/07/31 05:06:41;;;;;;;8.23;5.55;;;17.00;99.90;;;;;;5117132;28;20627;-48
2023/07/31 05:09:07;;;;;;;9.35;5.47;;;17.00;99.90;;;;;;5117750;28;20165;-54
2023/07/31 05:11:32;;;;;;;8.02;5.32;;;17.00;99.90;;;;;;5117726;28;20213;-51
2023/07/31 05:13:58;;;;;;;9.35;5.88;;;17.00;99.90;;;;;;5117455;28;20170;-49
2023/07/31 05:16:24;;;;;;;8.95;5.50;;;17.00;99.90;;;;;;5117724;28;20177;-49
2023/07/31 05:18:49;;;;;;;10.88;6.18;;;17.10;99.90;;;;;;5117516;28;20232;-52
2023/07/31 05:21:15;;;;;;;10.18;5.80;;;17.10;99.90;;;;;;5117769;28;20640;-52
2023/07/31 05:23:40;;;;;;;11.35;6.28;;;17.10;99.90;;;;;;5117623;28;20621;-52
2023/07/31 05:26:08;;;;;;;9.52;5.95;;;17.10;99.90;;;;;;5117548;28;20173;-50
2023/07/31 05:28:35;;;;;;;7.38;5.78;;;17.10;99.90;;;;;;5117430;28;20173;-52
2023/07/31 05:31:01;;;;;;;9.15;6.28;;;17.00;99.90;;;;;;5117056;28;20261;-53
2023/07/31 05:33:27;;;;;;;8.88;5.80;;;17.00;99.90;;;;;;5117660;28;20180;-52
2023/07/31 05:35:53;;;;;;;7.95;6.38;;;17.00;99.90;;;;;;5117377;28;20252;-52
2023/07/31 05:38:19;;;;;;;7.65;5.82;;;17.00;99.90;;;;;;5117570;28;20169;-53
2023/07/31 05:40:44;;;;;;;12.50;6.28;;;17.10;99.90;;;;;;5117047;28;20181;-52
2023/07/31 05:43:10;;;;;;;7.85;6.25;;;17.00;99.90;;;;;;5117222;28;20663;-52
2023/07/31 05:45:36;;;;;;;8.63;5.90;;;17.00;99.90;;;;;;5117082;28;20177;-50
2023/07/31 05:48:02;;;;;;;6.90;6.10;;;17.00;99.90;;;;;;5117049;28;20684;-50
2023/07/31 05:50:28;;;;;;;9.93;5.95;;;17.00;99.90;;;;;;5116902;28;20177;-52
2023/07/31 05:52:54;;;;;;;7.28;6.28;;;17.00;99.90;;;;;;5116757;28;20214;-53
2023/07/31 05:55:19;;;;;;;9.00;6.57;;;17.00;99.90;;;;;;5116940;28;20169;-49
2023/07/31 05:57:45;;;;;;;9.50;5.75;;;17.00;99.90;;;;;;5116919;28;20207;-52
2023/07/31 06:00:12;;;;;;;9.73;6.22;;;17.00;99.90;;;;;;5116835;28;20591;-52
2023/07/31 06:02:38;;;;;;;11.70;6.90;;;17.00;99.90;;;;;;5114770;28;20189;-52
2023/07/31 06:05:05;;;;;;;9.55;6.38;;;17.10;99.90;;;;;;5116583;28;20537;-50
2023/07/31 06:07:31;;;;;;;11.50;6.80;;;17.20;99.90;;;;;;5117058;28;20173;-49
2023/07/31 06:10:02;;;;;;;10.80;6.47;;;17.10;99.90;;;;;;5116402;28;20626;-53
2023/07/31 06:12:28;;;;;;;8.90;6.78;;;17.10;99.90;;;;;;5116553;28;20185;-53
2023/07/31 06:14:54;;;;;;;11.93;7.50;;;17.10;99.90;;;;;;5116241;28;20184;-53
2023/07/31 06:17:21;;;;;;;12.15;6.82;;;17.10;99.90;;;;;;5116798;28;20204;-51
2023/07/31 06:19:46;;;;;;;10.68;7.00;;;17.20;99.90;;;;;;5116417;28;20259;-50
2023/07/31 06:22:12;;;;;;;9.18;7.10;;;17.20;99.90;;;;;;5116450;28;20189;-48
2023/07/31 06:24:38;;;;;;;10.70;6.60;;;17.10;99.90;;;;;;5116356;28;20166;-51
2023/07/31 06:27:05;;;;;;;13.75;7.13;;;17.10;99.90;;;;;;5116340;28;20197;-49
2023/07/31 06:29:30;;;;;;;9.48;6.72;;;17.10;99.90;;;;;;5116315;28;20169;-53
2023/07/31 06:31:56;;;;;;;9.02;5.78;;;17.20;99.90;;;;;;5116165;28;20258;-53
2023/07/31 06:34:22;;;;;;;9.77;5.95;;;17.20;99.90;;;;;;5116198;28;20176;-48
2023/07/31 06:36:47;;;;;;;8.05;6.50;;;17.20;99.90;;;;;;5115834;28;20169;-51
2023/07/31 06:39:13;;;;;;;8.73;5.32;;;17.20;99.90;;;;;;5116032;28;20198;-49
2023/07/31 06:41:39;;;;;;;11.73;6.25;;;17.10;99.90;;;;;;5116092;28;20260;-51
2023/07/31 06:44:04;;;;;;;8.23;5.13;;;17.10;99.90;;;;;;5116046;28;20174;-49
2023/07/31 06:46:30;;;;;;;8.93;5.57;;;17.20;99.90;;;;;;5114820;28;20302;-53
2023/07/31 06:48:56;;;;;;;8.93;5.68;;;17.20;99.90;;;;;;5114768;28;20504;-53
2023/07/31 06:51:21;;;;;;;9.18;6.22;;;17.20;99.90;;;;;;5115907;28;20216;-51
2023/07/31 06:53:47;;;;;;;8.40;5.63;;;17.30;99.90;;;;;;5115899;28;20177;-52
2023/07/31 06:56:12;;;;;;;8.70;6.13;;;17.30;99.90;;;;;;5115687;28;20165;-49
2023/07/31 06:58:39;;;;;;;9.57;5.95;;;17.30;99.90;;;;;;5115755;28;20178;-50
2023/07/31 07:01:04;;;;;;;9.52;5.88;;;17.40;99.90;;;;;;5115367;28;20594;-52
2023/07/31 07:03:30;;;;;;;11.63;6.57;;;17.40;99.90;;;;;;5114377;28;20212;-53
2023/07/31 07:05:56;;;;;;;6.82;5.47;;;17.30;99.90;;;;;;5115539;28;20569;-53
2023/07/31 07:08:21;;;;;;;7.93;5.60;;;17.30;99.90;;;;;;5115507;28;20219;-52
2023/07/31 07:10:47;;;;;;;10.52;5.82;;;17.30;99.90;;;;;;5115387;28;20566;-51
2023/07/31 07:13:13;;;;;;;8.82;5.78;;;17.30;99.90;;;;;;5115474;28;20184;-53
2023/07/31 07:15:39;;;;;;;8.93;5.90;;;17.30;99.90;;;;;;5115181;28;20625;-50
2023/07/31 07:18:05;;;;;;;10.13;5.60;;;17.30;99.90;;;;;;5115373;28;20165;-51
2023/07/31 07:20:30;;;;;;;9.52;5.88;;;17.40;99.90;;;;;;5115441;28;20224;-53
2023/07/31 07:22:56;;;;;;;9.10;5.93;;;17.30;99.90;;;;;;5115260;28;20185;-53
2023/07/31 07:25:22;;;;;;;11.50;5.25;;;17.30;99.90;;;;;;5115308;28;20248;-52
2023/07/31 07:27:47;;;;;;;7.82;5.03;;;17.30;99.90;;;;;;5115322;28;20194;-52
2023/07/31 07:30:14;;;;;;;10.75;5.60;;;17.30;99.90;;;;;;5114937;28;20531;-52
2023/07/31 07:32:40;;;;;;;9.95;5.57;;;17.30;99.90;;;;;;5114971;28;20716;-50
2023/07/31 07:35:06;;;;;;;11.00;5.45;;;17.40;99.90;;;;;;5115025;28;20262;-51
2023/07/31 07:37:32;;;;;;;9.18;5.75;;;17.20;99.90;;;;;;5114950;28;20245;-51
2023/07/31 07:39:58;;;;;;;9.57;5.00;;;17.20;99.90;;;;;;5114952;28;20196;-51
2023/07/31 07:42:23;;;;;;;9.38;5.40;;;17.30;99.90;;;;;;5114627;28;20180;-52
2023/07/31 07:44:49;;;;;;;8.48;5.63;;;17.20;99.90;;;;;;5114537;28;20252;-51
2023/07/31 07:47:15;;;;;;;7.13;5.22;;;17.40;99.90;;;;;;5114531;28;20169;-52
2023/07/31 07:49:40;;;;;;;10.38;5.40;;;17.30;99.90;;;;;;5114665;28;20169;-54
2023/07/31 07:52:06;;;;;;;9.20;5.85;;;17.40;99.90;;;;;;5114663;28;20201;-52
2023/07/31 07:54:32;;;;;;;8.48;5.63;;;17.60;99.90;;;;;;5114827;28;20226;-48
2023/07/31 07:56:58;;;;;;;7.25;5.00;;;17.60;99.90;;;;;;5114514;28;20181;-53
2023/07/31 07:59:23;;;;;;;9.80;5.25;;;17.70;99.90;;;;;;5114597;28;20197;-52
2023/07/31 08:01:49;;;;;;;9.45;4.68;;;17.70;99.90;;;;;;5114544;28;20181;-50
2023/07/31 08:04:14;;;;;;;8.45;4.82;;;17.70;99.90;;;;;;5114210;28;20220;-50
2023/07/31 08:06:40;;;;;;;8.15;4.55;;;17.60;99.90;;;;;;5114769;28;20169;-52
2023/07/31 08:09:06;;;;;;;8.10;4.80;;;17.50;99.90;;;;;;5114344;28;20527;-50
2023/07/31 08:11:35;;;;;;;8.23;4.80;;;17.50;99.90;;;;;;5114591;28;20653;-49
2023/07/31 08:14:00;;;;;;;9.55;4.20;;;17.50;99.90;;;;;;5114332;28;20169;-52
2023/07/31 08:16:26;;;;;;;7.80;4.18;;;17.50;99.90;;;;;;5114307;28;20180;-51
2023/07/31 08:18:52;;;;;;;10.55;4.22;;;17.40;99.90;;;;;;5113871;28;20225;-50
2023/07/31 08:21:18;;;;;;;9.82;4.55;;;17.40;99.90;;;;;;5114158;28;20238;-53
2023/07/31 08:23:43;;;;;;;6.55;4.35;;;17.50;99.90;;;;;;5113945;28;20173;-50
2023/07/31 08:26:18;;;;;;;7.60;4.30;;;17.60;99.90;;;;;;5113560;28;20170;-53
2023/07/31 08:28:43;;;;;;;8.07;4.40;;;17.60;99.90;;;;;;5114230;28;20602;-52
2023/07/31 08:31:10;;;;;;;6.47;4.40;;;17.60;99.90;;;;;;5114162;28;20193;-55
2023/07/31 08:33:36;;;;;;;7.25;4.10;;;17.60;99.90;;;;;;5114079;28;20177;-51
2023/07/31 08:36:02;;;;;;;6.57;3.90;;;17.70;99.90;;;;;;5114084;28;20656;-48
2023/07/31 08:38:29;;;;;;;10.73;4.35;;;17.70;99.90;;;;;;5114042;28;20264;-49
2023/07/31 08:40:56;;;;;;;5.43;4.10;;;17.70;99.90;;;;;;5114037;28;20177;-50
2023/07/31 08:43:27;;;;;;;8.55;4.18;;;17.70;99.90;;;;;;5113671;28;20199;-50
2023/07/31 08:45:53;;;;;;;7.43;3.90;;;17.70;99.90;;;;;;5114313;28;20149;-47
2023/07/31 08:48:20;;;;;;;6.40;4.15;;;17.70;99.90;;;;;;5113874;28;20709;-49
2023/07/31 08:50:46;;;;;;;7.57;3.95;;;17.70;99.90;;;;;;5113766;28;20184;-51
2023/07/31 08:53:12;;;;;;;7.13;3.88;;;17.80;99.90;;;;;;5113903;28;20182;-49
2023/07/31 08:55:38;;;;;;;6.78;3.90;;;17.80;99.90;;;;;;5113854;28;20714;-52
2023/07/31 08:58:04;;;;;;;8.35;3.88;;;17.80;99.90;;;;;;5113847;28;20161;-52
2023/07/31 09:00:32;;;;;;;7.30;3.90;;;17.90;99.90;;;;;;5113465;28;20652;-55
2023/07/31 09:03:15;;;;;;;6.80;3.83;;;18.00;99.90;;;;;;5113805;28;20193;-52
2023/07/31 09:05:43;;;;;;;7.32;4.05;;;18.10;99.90;;;;;;5113863;28;20339;-51
2023/07/31 09:08:11;;;;;;;8.18;3.83;;;18.30;99.90;;;;;;5113733;28;20179;-53
2023/07/31 09:10:41;;;;;;;6.47;3.78;;;18.40;99.90;;;;;;5113661;28;20238;-51
2023/07/31 09:13:08;;;;;;;6.88;3.45;;;18.40;99.90;;;;;;5113681;28;20209;-50
2023/07/31 09:15:34;;;;;;;6.05;3.63;;;18.60;99.90;;;;;;5113685;28;20201;-51
2023/07/31 09:18:02;;;;;;;5.57;3.60;;;18.80;99.90;;;;;;5113354;28;20638;-52
2023/07/31 09:20:28;;;;;;;7.07;3.90;;;19.10;99.90;;;;;;5113685;28;20236;-49
2023/07/31 09:22:55;;;;;;;5.68;3.30;;;19.30;99.90;;;;;;5113564;28;20173;-49
2023/07/31 09:25:25;;;;;;;5.93;3.92;;;19.50;99.90;;;;;;5113559;28;20169;-51
2023/07/31 09:27:51;;;;;;;5.47;3.40;;;19.50;99.90;;;;;;5113358;28;20617;-49
2023/07/31 09:30:21;;;;;;;5.65;3.20;;;19.60;99.90;;;;;;5113584;28;20193;-51
2023/07/31 09:32:48;;;;;;;4.90;3.38;;;19.50;99.90;;;;;;5113397;28;20193;-50
2023/07/31 09:35:22;;;;;;;6.45;3.40;;;19.50;99.90;;;;;;5113212;28;20170;-51
2023/07/31 09:37:53;;;;;;;4.82;3.38;;;19.50;99.90;;;;;;5114760;28;20585;-52
2023/07/31 09:40:32;;;;;;;4.45;3.13;;;19.50;99.90;;;;;;5117570;28;20161;-54
2023/07/31 09:43:02;;;;;;;4.32;3.78;;;19.50;99.90;;;;;;5117231;28;20162;-50
2023/07/31 09:45:28;;;;;;;5.93;3.38;;;19.30;99.90;;;;;;5117275;28;20629;-48
2023/07/31 09:47:55;;;;;;;5.57;3.85;;;19.30;99.90;;;;;;5117175;28;20170;-53
2023/07/31 09:50:22;;;;;;;5.20;3.50;;;19.20;99.90;;;;;;5117069;28;20184;-49
2023/07/31 09:52:49;;;;;;;6.82;3.58;;;19.00;99.90;;;;;;5117066;28;20212;-52
2023/07/31 09:55:14;;;;;;;6.80;3.85;;;18.90;99.90;;;;;;5116969;28;20173;-51
2023/07/31 09:57:42;;;;;;;5.80;3.83;;;18.90;99.90;;;;;;5116951;28;20640;-48
2023/07/31 10:00:09;;;;;;;7.10;3.67;;;18.90;99.90;;;;;;5116869;28;20173;-48
2023/07/31 10:02:36;;;;;;;5.53;3.63;;;19.00;99.90;;;;;;5115597;28;20181;-49
2023/07/31 10:05:04;;;;;;;5.63;3.88;;;19.10;99.90;;;;;;5116787;28;20187;-53
2023/07/31 10:07:31;;;;;;;6.53;4.18;;;18.90;99.90;;;;;;5116510;28;20166;-52
2023/07/31 10:10:00;;;;;;;8.55;4.47;;;18.80;99.90;;;;;;5116732;28;20219;-53
2023/07/31 10:12:30;;;;;;;5.05;4.40;;;18.70;99.90;;;;;;5116609;28;20204;-53
2023/07/31 10:14:56;;;;;;;7.20;4.00;;;18.60;99.90;;;;;;5116645;28;20180;-49
2023/07/31 10:17:22;;;;;;;7.35;4.50;;;18.60;99.90;;;;;;5116575;28;20260;-52
2023/07/31 10:19:49;;;;;;;6.43;4.50;;;18.50;99.90;;;;;;5116554;28;20274;-51
2023/07/31 10:22:15;;;;;;;7.53;4.25;;;18.40;99.90;;;;;;5116498;28;20252;-49
2023/07/31 10:24:46;;;;;;;6.43;4.00;;;18.40;99.90;;;;;;5116427;28;20208;-50
2023/07/31 10:27:12;;;;;;;7.03;4.30;;;18.40;99.90;;;;;;5116390;28;20178;-49
2023/07/31 10:29:39;;;;;;;6.78;4.60;;;18.50;99.90;;;;;;5116080;28;20226;-53
2023/07/31 10:32:09;;;;;;;5.57;4.40;;;18.50;99.90;;;;;;5115909;28;20197;-50
2023/07/31 10:34:36;;;;;;;9.48;5.10;;;18.50;99.90;;;;;;5115027;28;20586;-52
2023/07/31 10:37:28;;;;;;;7.32;5.60;;;18.50;99.90;;;;;;5116189;28;20222;-53
2023/07/31 10:40:04;;;;;;;8.73;5.07;;;18.50;99.90;;;;;;5116143;28;20173;-51
2023/07/31 10:42:30;;;;;;;7.47;5.45;;;18.50;99.90;;;;;;5115810;28;20173;-51
2023/07/31 10:45:04;;;;;;;8.20;6.05;;;18.30;99.90;;;;;;5116093;28;20176;-53
2023/07/31 10:47:30;;;;;;;9.13;6.70;;;18.30;99.90;;;;;;5115817;28;20564;-52
2023/07/31 10:50:21;;;;;;;8.02;6.13;;;18.30;99.90;;;;;;5115375;28;20218;-50
2023/07/31 10:52:49;;;;;;;7.75;6.07;;;18.30;99.90;;;;;;5115770;28;20193;-48
2023/07/31 10:55:41;;;;;;;7.72;6.75;;;18.40;99.90;;;;;;5115804;28;20277;-52
2023/07/31 10:58:17;;;;;;;9.05;6.53;;;18.40;99.90;;;;;;5115811;28;20573;-50
2023/07/31 11:00:44;;;;;;;10.50;6.22;;;18.20;99.90;;;;;;5115778;28;20252;-49
2023/07/31 11:03:22;;;;;;;10.07;7.10;;;18.40;99.90;;;;;;5115717;28;20223;-52
2023/07/31 11:05:54;;;;;;;9.30;7.03;;;18.50;99.90;;;;;;5115874;28;20168;-51
2023/07/31 11:08:27;;;;;;;9.93;7.10;;;18.40;99.90;;;;;;5115594;28;20161;-51
2023/07/31 11:11:02;;;;;;;11.43;6.72;;;18.40;99.90;;;;;;5115504;28;20188;-50
2023/07/31 11:13:52;;;;;;;12.23;7.80;;;18.40;99.90;;;;;;5115229;28;20169;-51
2023/07/31 11:16:22;;;;;;;10.13;7.35;;;18.40;99.90;;;;;;5115360;28;20162;-50
2023/07/31 11:18:51;;;;;;;12.23;7.75;;;18.50;99.90;;;;;;5113993;28;20229;-52
2023/07/31 11:21:19;;;;;;;9.02;7.07;;;18.60;99.90;;;;;;5115329;28;20162;-53
2023/07/31 11:23:52;;;;;;;9.95;7.30;;;18.50;99.90;;;;;;5115272;28;20172;-49
2023/07/31 11:26:19;;;;;;;10.77;6.65;;;18.50;99.90;;;;;;5115233;28;20172;-53
2023/07/31 11:28:47;;;;;;;9.63;7.00;;;18.60;99.90;;;;;;5114842;28;20534;-53
2023/07/31 11:31:13;;;;;;;10.63;7.22;;;18.60;99.90;;;;;;5114980;28;20201;-52
2023/07/31 11:33:39;;;;;;;10.00;6.90;;;18.70;99.90;;;;;;5115073;28;20182;-50
2023/07/31 11:36:04;;;;;;;8.30;6.40;;;18.60;99.90;;;;;;5115067;28;20177;-52
2023/07/31 11:38:34;;;;;;;10.40;6.80;;;18.80;99.90;;;;;;5115010;28;20593;-49
2023/07/31 11:41:04;;;;;;;9.20;6.20;;;18.80;99.90;;;;;;5114916;28;20177;-50
2023/07/31 11:43:33;;;;;;;10.80;7.15;;;18.70;99.90;;;;;;5114961;28;20188;-53
2023/07/31 11:46:03;;;;;;;9.02;6.40;;;18.70;99.90;;;;;;5114881;28;20165;-49
2023/07/31 11:48:33;;;;;;;9.60;6.32;;;18.70;99.90;;;;;;5114843;28;20234;-52
2023/07/31 11:51:00;;;;;;;10.25;6.90;;;18.70;99.90;;;;;;5114672;28;20235;-52
2023/07/31 11:53:43;;;;;;;12.10;7.05;;;18.70;99.90;;;;;;5114665;28;20530;-53
2023/07/31 11:56:11;;;;;;;10.82;6.45;;;18.70;99.90;;;;;;5114658;28;20618;-50
2023/07/31 11:58:37;;;;;;;11.57;5.90;;;18.70;99.90;;;;;;5114454;28;20563;-51
2023/07/31 12:01:04;;;;;;;8.68;6.80;;;18.70;99.90;;;;;;5113352;28;20542;-53
2023/07/31 12:03:31;;;;;;;12.90;7.13;;;18.80;99.90;;;;;;5114815;28;20244;-54
2023/07/31 12:05:58;;;;;;;12.85;7.07;;;19.00;99.90;;;;;;5114662;28;20202;-51
2023/07/31 12:08:24;;;;;;;13.88;7.38;;;19.20;99.90;;;;;;5114129;28;20576;-50
2023/07/31 12:10:54;;;;;;;9.45;6.32;;;19.30;99.90;;;;;;5114052;28;20634;-51
2023/07/31 12:13:23;;;;;;;10.50;7.15;;;19.40;99.90;;;;;;5114402;28;20227;-51
2023/07/31 12:15:53;;;;;;;11.05;6.10;;;19.50;99.90;;;;;;5114404;28;20178;-51
2023/07/31 12:18:22;;;;;;;10.20;6.82;;;19.70;99.90;;;;;;5114138;28;20161;-52
2023/07/31 12:20:57;;;;;;;12.35;6.03;;;19.90;99.90;;;;;;5114723;28;20158;-51
2023/07/31 12:23:28;;;;;;;10.13;5.97;;;20.00;99.90;;;;;;5114254;28;20157;-52
2023/07/31 12:26:07;;;;;;;9.90;5.70;;;19.80;99.90;;;;;;5113973;28;20218;-52
2023/07/31 12:28:38;;;;;;;9.20;6.03;;;19.70;99.90;;;;;;5114258;28;20517;-49
2023/07/31 12:31:04;;;;;;;7.38;5.13;;;19.50;99.90;;;;;;5113966;28;20319;-48
2023/07/31 12:33:32;;;;;;;9.82;5.43;;;19.40;99.90;;;;;;5113688;28;20542;-54
2023/07/31 12:36:00;;;;;;;10.93;5.90;;;19.50;99.90;;;;;;5114200;28;20177;-51
2023/07/31 12:38:26;;;;;;;7.03;4.82;;;19.40;99.90;;;;;;5113730;28;20522;-49
2023/07/31 12:40:51;;;;;;;6.95;5.13;;;19.20;99.90;;;;;;5113990;28;20178;-52